Time;durP1;ratioP1;P1;durP2;ratioP2;P2;SDS_P1;SDS_P2;PMS_P1;PMS_P2;Temp;Humidity;BMP_temperature;BMP_pressure;BME280_temperature;BME280_humidity;BME280_pressure;Samples;Min_cycle;Max_cycle;Signal;HPM_P1;HPM_P2
2021/09/27 00:00:44;;;;;;;;;;;18.50;99.90;;;;;;1892051;74;20505;-70
2021/09/27 00:03:12;;;;;;;;;;;18.50;99.90;;;;;;1891551;74;20318;-71
2021/09/27 00:05:38;;;;;;;;;;;18.60;99.90;;;;;;1893741;74;20169;-70
2021/09/27 00:08:06;;;;;;;;;;;18.60;99.90;;;;;;1898574;74;20534;-70
2021/09/27 00:10:34;;;;;;;;;;;18.70;99.90;;;;;;1892240;74;20638;-70
2021/09/27 00:13:01;;;;;;;;;;;18.70;99.90;;;;;;1891085;74;20176;-70
2021/09/27 00:15:30;;;;;;;;;;;18.70;99.90;;;;;;1892345;74;20497;-70
2021/09/27 00:17:57;;;;;;;;;;;18.80;99.90;;;;;;1890165;74;20179;-71
2021/09/27 00:20:23;;;;;;;;;;;18.80;99.90;;;;;;1895069;74;20201;-70
2021/09/27 00:22:51;;;;;;;;;;;18.80;99.90;;;;;;1899870;74;20215;-70
2021/09/27 00:25:19;;;;;;;;;;;18.80;99.90;;;;;;1893988;74;20200;-69
2021/09/27 00:27:46;;;;;;;;;;;18.80;99.90;;;;;;1892301;74;20163;-70
2021/09/27 00:30:13;;;;;;;;;;;18.90;99.90;;;;;;1901705;74;20225;-69
2021/09/27 00:32:41;;;;;;;;;;;18.90;99.90;;;;;;1902458;74;20216;-69
2021/09/27 00:35:09;;;;;;;;;;;18.80;99.90;;;;;;1892347;74;20189;-71
2021/09/27 00:37:36;;;;;;;;;;;18.90;99.90;;;;;;1887422;74;20202;-70
2021/09/27 00:40:04;;;;;;;;;;;18.90;99.90;;;;;;1887693;74;20229;-70
2021/09/27 00:42:31;;;;;;;;;;;18.90;99.90;;;;;;1885038;74;20168;-69
2021/09/27 00:44:58;;;;;;;;;;;18.80;99.90;;;;;;1886875;74;20159;-70
2021/09/27 00:47:25;;;;;;;;;;;18.80;99.90;;;;;;1886400;74;20208;-70
2021/09/27 00:49:52;;;;;;;;;;;18.80;99.90;;;;;;1891121;74;20455;-70
2021/09/27 00:52:19;;;;;;;;;;;18.90;99.90;;;;;;1888444;74;20387;-70
2021/09/27 00:54:46;;;;;;;;;;;18.80;99.90;;;;;;1890774;74;20180;-70
2021/09/27 00:57:14;;;;;;;;;;;18.90;99.90;;;;;;1883927;74;20223;-69
2021/09/27 00:59:43;;;;;;;;;;;18.80;99.90;;;;;;1881660;74;20193;-70
2021/09/27 01:02:11;;;;;;;;;;;18.80;99.90;;;;;;1881394;74;20168;-71
2021/09/27 01:04:38;;;;;;;;;;;18.80;99.90;;;;;;1882300;74;20182;-69
2021/09/27 01:07:19;;;;;;;;;;;18.80;99.90;;;;;;1882540;74;20128;-69
2021/09/27 01:09:50;;;;;;;;;;;18.80;99.90;;;;;;1879260;74;20147;-70
2021/09/27 01:12:21;;;;;;;;;;;18.80;99.90;;;;;;1880362;74;20117;-70
2021/09/27 01:14:50;;;;;;;;;;;18.90;99.90;;;;;;1880774;74;20176;-71
2021/09/27 01:17:27;;;;;;;;;;;18.80;99.90;;;;;;1878153;74;20171;-70
2021/09/27 01:20:01;;;;;;;;;;;18.80;99.90;;;;;;1878453;74;20160;-69
2021/09/27 01:22:32;;;;;;;;;;;18.80;99.90;;;;;;1880986;74;20164;-70
2021/09/27 01:25:01;;;;;;;;;;;18.70;99.90;;;;;;1879837;74;20487;-69
2021/09/27 01:27:35;;;;;;;;;;;18.80;99.90;;;;;;1879378;74;20204;-70
2021/09/27 01:30:20;;;;;;;;;;;18.80;99.90;;;;;;1885417;75;20136;-69
2021/09/27 01:32:48;;;;;;;;;;;18.80;99.90;;;;;;1894323;74;20180;-70
2021/09/27 01:35:17;;;;;;;;;;;18.80;99.90;;;;;;1886290;74;20206;-70
2021/09/27 01:38:02;;;;;;;;;;;18.80;99.90;;;;;;1879177;74;20155;-69
2021/09/27 01:40:45;;;;;;;;;;;18.80;99.90;;;;;;1889911;74;20185;-69
2021/09/27 01:43:30;;;;;;;;;;;18.80;99.90;;;;;;1888293;74;20202;-69
2021/09/27 01:46:08;;;;;;;;;;;18.80;99.90;;;;;;1886766;74;20516;-70
2021/09/27 01:48:48;;;;;;;;;;;18.80;99.90;;;;;;1885191;74;20213;-70
2021/09/27 01:51:17;;;;;;;;;;;18.80;99.90;;;;;;1882357;74;20214;-70
2021/09/27 01:53:54;;;;;;;;;;;18.80;99.90;;;;;;1890432;74;20214;-70
2021/09/27 01:56:22;;;;;;;;;;;18.70;99.90;;;;;;1880506;74;20177;-70
2021/09/27 01:58:54;;;;;;;;;;;18.70;99.90;;;;;;1880882;74;20220;-70
2021/09/27 02:01:28;;;;;;;;;;;18.70;99.90;;;;;;1884524;74;20383;-71
2021/09/27 02:03:56;;;;;;;;;;;18.70;99.90;;;;;;1881038;74;20164;-69
2021/09/27 02:06:25;;;;;;;;;;;18.60;99.90;;;;;;1884183;74;20202;-70
2021/09/27 02:08:54;;;;;;;;;;;18.60;99.90;;;;;;1884183;74;20268;-69
2021/09/27 02:11:28;;;;;;;;;;;18.60;99.90;;;;;;1880487;74;20206;-70
2021/09/27 02:14:13;;;;;;;;;;;18.60;99.90;;;;;;1883745;74;20221;-69
2021/09/27 02:16:44;;;;;;;;;;;18.60;99.90;;;;;;1878422;74;20164;-69
2021/09/27 02:19:12;;;;;;;;;;;18.50;99.90;;;;;;1883795;74;20198;-70
2021/09/27 02:21:41;;;;;;;;;;;18.60;99.90;;;;;;1881306;74;20207;-69
2021/09/27 02:24:18;;;;;;;;;;;18.50;99.90;;;;;;1880504;74;20187;-70
2021/09/27 02:26:46;;;;;;;;;;;18.60;99.90;;;;;;1883534;74;20206;-69
2021/09/27 02:29:13;;;;;;;;;;;18.60;99.90;;;;;;1882075;74;20172;-70
2021/09/27 02:32:00;;;;;;;;;;;18.50;99.90;;;;;;1881685;74;20476;-69
2021/09/27 02:34:45;;;;;;;;;;;18.50;99.90;;;;;;1887634;74;20315;-69
2021/09/27 02:37:25;;;;;;;;;;;18.50;99.90;;;;;;1891823;74;20165;-70
2021/09/27 02:39:59;;;;;;;;;;;18.50;99.90;;;;;;1894988;74;20265;-69
2021/09/27 02:42:31;;;;;;;;;;;18.40;99.90;;;;;;1896517;74;20167;-70
2021/09/27 02:44:58;;;;;;;;;;;18.40;99.90;;;;;;1893019;74;20389;-69
2021/09/27 02:47:27;;;;;;;;;;;18.50;99.90;;;;;;1892665;74;20426;-70
2021/09/27 02:49:57;;;;;;;;;;;18.40;99.90;;;;;;1900963;74;20207;-70
2021/09/27 02:52:23;;;;;;;;;;;18.40;99.90;;;;;;1896878;74;20163;-71
2021/09/27 02:54:50;;;;;;;;;;;18.40;99.90;;;;;;1897569;74;20122;-69
2021/09/27 02:57:28;;;;;;;;;;;18.30;99.90;;;;;;1893041;74;20120;-71
2021/09/27 03:00:02;;;;;;;;;;;18.30;99.90;;;;;;1892922;74;20177;-70
2021/09/27 03:02:40;;;;;;;;;;;18.40;99.90;;;;;;1904585;74;20164;-70
2021/09/27 03:05:11;;;;;;;;;;;18.30;99.90;;;;;;1898733;74;20199;-70
2021/09/27 03:07:48;;;;;;;;;;;18.30;99.90;;;;;;1897230;74;20110;-70
2021/09/27 03:10:16;;;;;;;;;;;18.30;99.90;;;;;;1893745;74;20164;-70
2021/09/27 03:12:45;;;;;;;;;;;18.30;99.90;;;;;;1890273;74;20211;-71
2021/09/27 03:15:22;;;;;;;;;;;18.30;99.90;;;;;;1892678;74;20435;-71
2021/09/27 03:17:50;;;;;;;;;;;18.20;99.90;;;;;;1896109;74;20211;-70
2021/09/27 03:20:18;;;;;;;;;;;18.20;99.90;;;;;;1891217;74;20504;-69
2021/09/27 03:22:47;;;;;;;;;;;18.20;99.90;;;;;;1894246;74;20175;-71
2021/09/27 03:25:15;;;;;;;;;;;18.20;99.90;;;;;;1893233;74;20540;-70
2021/09/27 03:27:56;;;;;;;;;;;18.20;99.90;;;;;;1891653;74;20333;-70
2021/09/27 03:30:24;;;;;;;;;;;18.20;99.90;;;;;;1892552;74;20109;-70
2021/09/27 03:32:52;;;;;;;;;;;18.20;99.90;;;;;;1897618;74;20244;-71
2021/09/27 03:35:20;;;;;;;;;;;18.30;99.90;;;;;;1891016;74;20176;-70
2021/09/27 03:38:06;;;;;;;;;;;18.30;99.90;;;;;;1883792;74;20210;-70
2021/09/27 03:40:37;;;;;;;;;;;18.30;99.90;;;;;;1881845;74;20160;-70
2021/09/27 03:43:05;;;;;;;;;;;18.40;99.90;;;;;;1880308;74;20249;-70
2021/09/27 03:45:39;;;;;;;;;;;18.40;99.90;;;;;;1883954;74;20335;-70
2021/09/27 03:48:08;;;;;;;;;;;18.40;99.90;;;;;;1885035;74;20105;-70
2021/09/27 03:50:36;;;;;;;;;;;18.40;99.90;;;;;;1885567;74;20576;-70
2021/09/27 03:53:04;;;;;;;;;;;18.40;99.90;;;;;;1889120;75;20134;-70
2021/09/27 03:55:35;;;;;;;;;;;18.30;99.90;;;;;;1882265;74;20241;-70
2021/09/27 03:58:10;;;;;;;;;;;18.30;99.90;;;;;;1887359;75;20111;-69
2021/09/27 04:00:56;;;;;;;;;;;18.30;99.90;;;;;;1881858;74;20189;-69
2021/09/27 04:03:40;;;;;;;;;;;18.30;99.90;;;;;;1882652;74;20122;-70
2021/09/27 04:06:14;;;;;;;;;;;18.30;99.90;;;;;;1884551;74;20103;-70
2021/09/27 04:08:45;;;;;;;;;;;18.30;99.90;;;;;;1885896;74;20122;-70
2021/09/27 04:11:31;;;;;;;;;;;18.20;99.90;;;;;;1879596;74;20206;-70
2021/09/27 04:14:02;;;;;;;;;;;18.20;99.90;;;;;;1883981;74;20522;-70
2021/09/27 04:16:33;;;;;;;;;;;18.20;99.90;;;;;;1884666;74;20181;-70
2021/09/27 04:19:01;;;;;;;;;;;18.20;99.90;;;;;;1884136;74;20271;-70
2021/09/27 04:21:46;;;;;;;;;;;18.20;99.90;;;;;;1882306;74;20177;-70
2021/09/27 04:24:17;;;;;;;;;;;18.10;99.90;;;;;;1884748;74;20123;-71
2021/09/27 04:26:48;;;;;;;;;;;18.10;99.90;;;;;;1882624;74;20179;-69
2021/09/27 04:29:20;;;;;;;;;;;18.10;99.90;;;;;;1881539;74;20476;-70
2021/09/27 04:31:57;;;;;;;;;;;18.10;99.90;;;;;;1879451;74;20117;-71
2021/09/27 04:34:43;;;;;;;;;;;18.20;99.90;;;;;;1881107;74;20239;-70
2021/09/27 04:37:10;;;;;;;;;;;18.10;99.90;;;;;;1882215;74;20505;-70
2021/09/27 04:39:39;;;;;;;;;;;18.10;99.90;;;;;;1879979;74;20168;-71
2021/09/27 04:42:24;;;;;;;;;;;18.10;99.90;;;;;;1885208;74;20207;-70
2021/09/27 04:44:53;;;;;;;;;;;18.20;99.90;;;;;;1880990;74;20214;-70
2021/09/27 04:47:21;;;;;;;;;;;18.20;99.90;;;;;;1880279;74;20472;-70
2021/09/27 04:49:59;;;;;;;;;;;18.20;99.90;;;;;;1887011;74;20114;-71
2021/09/27 04:52:30;;;;;;;;;;;18.20;99.90;;;;;;1877410;74;20173;-71
2021/09/27 04:55:08;;;;;;;;;;;18.20;99.90;;;;;;1880223;74;20201;-69
2021/09/27 04:57:52;;;;;;;;;;;18.20;99.90;;;;;;1881929;74;20212;-70
2021/09/27 05:00:23;;;;;;;;;;;18.20;99.90;;;;;;1884996;74;20201;-70
2021/09/27 05:03:08;;;;;;;;;;;18.20;99.90;;;;;;1889921;74;20393;-69
2021/09/27 05:05:55;;;;;;;;;;;18.10;99.90;;;;;;1884689;74;20173;-69
2021/09/27 05:08:26;;;;;;;;;;;18.20;99.90;;;;;;1854072;76;20174;-70
2021/09/27 05:11:00;;;;;;;;;;;18.10;99.90;;;;;;1860284;76;20165;-71
2021/09/27 05:13:38;;;;;;;;;;;18.10;99.90;;;;;;1858488;76;21429;-71
2021/09/27 05:16:23;;;;;;;;;;;18.10;99.90;;;;;;1852859;76;20720;-69
2021/09/27 05:18:57;;;;;;;;;;;18.10;99.90;;;;;;1811312;77;20208;-70
2021/09/27 05:21:28;;;;;;;;;;;18.10;99.90;;;;;;1892928;74;20496;-71
2021/09/27 05:24:13;;;;;;;;;;;18.10;99.90;;;;;;1893090;74;20152;-70
2021/09/27 05:26:59;;;;;;;;;;;18.20;99.90;;;;;;1893565;74;20465;-70
2021/09/27 05:29:44;;;;;;;;;;;18.10;99.90;;;;;;1890005;74;20216;-71
2021/09/27 05:32:19;;;;;;;;;;;18.10;99.90;;;;;;1894488;74;20207;-71
2021/09/27 05:35:04;;;;;;;;;;;18.20;99.90;;;;;;1900424;74;20201;-70
2021/09/27 05:37:32;;;;;;;;;;;18.10;99.90;;;;;;1899176;74;20109;-71
2021/09/27 05:40:06;;;;;;;;;;;18.10;99.90;;;;;;1898892;74;20239;-71
2021/09/27 05:42:34;;;;;;;;;;;18.20;99.90;;;;;;1893856;74;20257;-70
2021/09/27 05:45:09;;;;;;;;;;;18.20;99.90;;;;;;1893800;74;20151;-70
2021/09/27 05:47:54;;;;;;;;;;;18.10;99.90;;;;;;1896155;74;20206;-70
2021/09/27 05:50:22;;;;;;;;;;;18.20;99.90;;;;;;1900565;73;20211;-69
2021/09/27 05:52:57;;;;;;;;;;;18.10;99.90;;;;;;1906100;74;20488;-69
2021/09/27 05:55:43;;;;;;;;;;;18.20;99.90;;;;;;1899041;74;20207;-69
2021/09/27 05:58:11;;;;;;;;;;;18.10;99.90;;;;;;1899943;74;20207;-71
2021/09/27 06:00:46;;;;;;;;;;;18.20;99.90;;;;;;1901513;74;20199;-70
2021/09/27 06:03:20;;;;;;;;;;;18.10;99.90;;;;;;1898493;74;20248;-70
2021/09/27 06:05:48;;;;;;;;;;;18.10;99.90;;;;;;1896133;74;20738;-69
2021/09/27 06:08:22;;;;;;;;;;;18.10;99.90;;;;;;1902987;73;20230;-70
2021/09/27 06:11:07;;;;;;;;;;;18.10;99.90;;;;;;1904018;73;20215;-70
2021/09/27 06:13:36;;;;;;;;;;;18.20;99.90;;;;;;1893681;73;20205;-72
2021/09/27 06:16:07;;;;;;;;;;;18.20;99.90;;;;;;1897781;73;20245;-73
2021/09/27 06:18:36;;;;;;;;;;;18.20;99.90;;;;;;1901999;74;20161;-73
2021/09/27 06:21:22;;;;;;;;;;;18.20;99.90;;;;;;1901638;74;20177;-72
2021/09/27 06:23:57;;;;;;;;;;;18.20;99.90;;;;;;1900314;74;20492;-72
2021/09/27 06:26:25;;;;;;;;;;;18.20;99.90;;;;;;1900515;74;20127;-73
2021/09/27 06:28:53;;;;;;;;;;;18.20;99.90;;;;;;1903962;73;20150;-72
2021/09/27 06:31:28;;;;;;;;;;;18.20;99.90;;;;;;1895986;74;20156;-73
2021/09/27 06:33:56;;;;;;;;;;;18.20;99.90;;;;;;1899667;74;20169;-73
2021/09/27 06:36:24;;;;;;;;;;;18.20;99.90;;;;;;1901309;74;20187;-72
2021/09/27 06:38:53;;;;;;;;;;;18.20;99.90;;;;;;1902841;74;20384;-72
2021/09/27 06:41:21;;;;;;;;;;;18.20;99.90;;;;;;1901851;74;20186;-74
2021/09/27 06:43:48;;;;;;;;;;;18.20;99.90;;;;;;1894483;74;20117;-74
2021/09/27 06:46:15;;;;;;;;;;;18.20;99.90;;;;;;1898469;74;20682;-72
2021/09/27 06:48:42;;;;;;;;;;;18.20;99.90;;;;;;1899778;74;20160;-74
2021/09/27 06:51:09;;;;;;;;;;;18.20;99.90;;;;;;1905599;74;20165;-73
2021/09/27 06:53:36;;;;;;;;;;;18.20;99.90;;;;;;1900159;73;20565;-74
2021/09/27 06:56:03;;;;;;;;;;;18.20;99.90;;;;;;1901433;74;20125;-72
2021/09/27 06:58:30;;;;;;;;;;;18.20;99.90;;;;;;1896024;74;20197;-73
2021/09/27 07:00:57;;;;;;;;;;;18.20;99.90;;;;;;1910997;74;20149;-72
2021/09/27 07:03:24;;;;;;;;;;;18.20;99.90;;;;;;1904055;74;20251;-74
2021/09/27 07:05:52;;;;;;;;;;;18.30;99.90;;;;;;1903439;73;20177;-73
2021/09/27 07:08:20;;;;;;;;;;;18.30;99.90;;;;;;1907397;74;20218;-73
2021/09/27 07:10:48;;;;;;;;;;;18.30;99.90;;;;;;1911371;73;20126;-73
2021/09/27 07:13:15;;;;;;;;;;;18.30;99.90;;;;;;1910116;73;20226;-73
2021/09/27 07:15:42;;;;;;;;;;;18.30;99.90;;;;;;1902409;74;20512;-73
2021/09/27 07:18:09;;;;;;;;;;;18.40;99.90;;;;;;1907688;74;20274;-73
2021/09/27 07:20:36;;;;;;;;;;;18.40;99.90;;;;;;1900155;73;20190;-74
2021/09/27 07:23:04;;;;;;;;;;;18.30;99.90;;;;;;1901135;74;20158;-74
2021/09/27 07:25:31;;;;;;;;;;;18.40;99.90;;;;;;1899792;74;20244;-74
2021/09/27 07:27:59;;;;;;;;;;;18.40;99.90;;;;;;1904930;74;20225;-74
2021/09/27 07:30:27;;;;;;;;;;;18.50;99.90;;;;;;1907162;74;20184;-73
2021/09/27 07:32:53;;;;;;;;;;;18.50;99.90;;;;;;1904007;74;20834;-72
2021/09/27 07:35:22;;;;;;;;;;;18.50;99.90;;;;;;1901663;73;20230;-73
2021/09/27 07:37:49;;;;;;;;;;;18.50;99.90;;;;;;1906271;74;20204;-72
2021/09/27 07:40:17;;;;;;;;;;;18.60;99.90;;;;;;1904168;73;20188;-72
2021/09/27 07:42:45;;;;;;;;;;;18.50;99.90;;;;;;1899509;74;20253;-72
2021/09/27 07:45:13;;;;;;;;;;;18.50;99.90;;;;;;1911613;73;20353;-72
2021/09/27 07:47:40;;;;;;;;;;;18.50;99.90;;;;;;1901505;74;20241;-71
2021/09/27 07:50:07;;;;;;;;;;;18.60;99.90;;;;;;1907150;74;20209;-74
2021/09/27 07:52:34;;;;;;;;;;;18.60;99.90;;;;;;1908117;74;20169;-73
2021/09/27 07:55:01;;;;;;;;;;;18.60;99.90;;;;;;1900301;74;20192;-74
2021/09/27 07:57:28;;;;;;;;;;;18.60;99.90;;;;;;1905923;73;20223;-72
2021/09/27 07:59:55;;;;;;;;;;;18.70;99.90;;;;;;1906485;74;20184;-74
2021/09/27 08:02:22;;;;;;;;;;;18.70;99.90;;;;;;1903911;74;20162;-73
2021/09/27 08:04:48;;;;;;;;;;;18.70;99.90;;;;;;1906547;74;20537;-72
2021/09/27 08:07:15;;;;;;;;;;;18.70;99.90;;;;;;1904624;73;20187;-72
2021/09/27 08:09:42;;;;;;;;;;;18.80;99.90;;;;;;1892334;74;20799;-72
2021/09/27 08:12:09;;;;;;;;;;;18.80;99.90;;;;;;1892004;74;20209;-73
2021/09/27 08:14:36;;;;;;;;;;;18.80;99.90;;;;;;1900491;74;20177;-73
2021/09/27 08:17:03;;;;;;;;;;;18.80;99.90;;;;;;1900428;74;20168;-73
2021/09/27 08:19:30;;;;;;;;;;;18.90;99.90;;;;;;1895643;74;21090;-72
2021/09/27 08:21:57;;;;;;;;;;;18.90;99.90;;;;;;1902096;74;20183;-72
2021/09/27 08:24:23;;;;;;;;;;;19.00;99.90;;;;;;1897266;74;20187;-72
2021/09/27 08:26:50;;;;;;;;;;;19.00;99.90;;;;;;1902474;74;20127;-72
2021/09/27 08:29:18;;;;;;;;;;;19.10;99.90;;;;;;1906716;74;20165;-73
2021/09/27 08:31:45;;;;;;;;;;;19.00;99.90;;;;;;1901340;74;20157;-72
2021/09/27 08:34:11;;;;;;;;;;;19.00;99.90;;;;;;1899483;74;20177;-73
2021/09/27 08:36:38;;;;;;;;;;;19.00;99.90;;;;;;1902008;74;20241;-70
2021/09/27 08:39:06;;;;;;;;;;;19.00;99.90;;;;;;1908239;73;20248;-70
2021/09/27 08:41:52;;;;;;;;;;;19.10;99.90;;;;;;1912599;73;20177;-71
2021/09/27 08:44:23;;;;;;;;;;;19.20;99.90;;;;;;1918083;73;20212;-71
2021/09/27 08:46:55;;;;;;;;;;;19.20;99.90;;;;;;1915619;73;20570;-71
2021/09/27 08:49:29;;;;;;;;;;;19.20;99.90;;;;;;1912287;73;20192;-71
2021/09/27 08:51:56;;;;;;;;;;;19.30;99.90;;;;;;1915100;73;20223;-71
2021/09/27 08:54:24;;;;;;;;;;;19.30;99.90;;;;;;1912179;73;20251;-71
2021/09/27 08:57:09;;;;;;;;;;;19.40;99.90;;;;;;1914482;73;20218;-71
2021/09/27 08:59:47;;;;;;;;;;;19.40;99.90;;;;;;1916960;73;20189;-72
2021/09/27 09:02:16;;;;;;;;;;;19.50;99.90;;;;;;1919159;73;20201;-71
2021/09/27 09:04:44;;;;;;;;;;;19.50;99.90;;;;;;1918632;73;20161;-71
2021/09/27 09:07:12;;;;;;;;;;;19.50;99.90;;;;;;1914452;73;20126;-71
2021/09/27 09:09:41;;;;;;;;;;;19.60;99.90;;;;;;1909079;73;20212;-71
2021/09/27 09:12:18;;;;;;;;;;;19.60;99.90;;;;;;1918725;73;20223;-72
2021/09/27 09:14:49;;;;;;;;;;;19.60;99.90;;;;;;1916472;73;20114;-70
2021/09/27 09:17:20;;;;;;;;;;;19.50;99.90;;;;;;1864873;75;20160;-70
2021/09/27 09:19:47;;;;;;;;;;;19.50;99.90;;;;;;1837282;76;20459;-71
2021/09/27 09:22:22;;;;;;;;;;;19.50;99.90;;;;;;1916577;73;20236;-71
2021/09/27 09:24:49;;;;;;;;;;;19.50;99.90;;;;;;1910210;73;20144;-71
2021/09/27 09:27:16;;;;;;;;;;;19.50;99.90;;;;;;1915793;73;20280;-71
2021/09/27 09:29:44;;;;;;;;;;;19.50;99.90;;;;;;1909462;73;20208;-71
2021/09/27 09:32:13;;;;;;;;;;;19.50;99.90;;;;;;1922374;73;20196;-71
2021/09/27 09:34:39;;;;;;;;;;;19.50;99.90;;;;;;1909257;73;20123;-71
2021/09/27 09:37:14;;;;;;;;;;;19.50;99.90;;;;;;1907513;73;20234;-71
2021/09/27 09:39:54;;;;;;;;;;;19.50;99.90;;;;;;1912495;73;21188;-70
2021/09/27 09:42:23;;;;;;;;;;;19.50;99.90;;;;;;1917209;73;20247;-70
2021/09/27 09:44:51;;;;;;;;;;;19.50;99.90;;;;;;1918128;73;20218;-70
2021/09/27 09:47:25;;;;;;;;;;;19.60;99.90;;;;;;1916994;73;20213;-70
2021/09/27 09:50:02;;;;;;;;;;;19.80;99.90;;;;;;1912749;73;20106;-70
2021/09/27 09:52:43;;;;;;;;;;;20.00;99.90;;;;;;1868649;76;20261;-70
2021/09/27 09:55:17;;;;;;;;;;;20.20;99.90;;;;;;1914436;73;20220;-71
2021/09/27 09:57:46;;;;;;;;;;;20.30;99.90;;;;;;1914968;73;20257;-71
2021/09/27 10:00:17;;;;;;;;;;;20.30;99.90;;;;;;1912491;73;20220;-70
2021/09/27 10:02:45;;;;;;;;;;;20.30;99.90;;;;;;1911284;73;20125;-70
2021/09/27 10:05:16;;;;;;;;;;;20.40;99.90;;;;;;1914756;73;20230;-69
2021/09/27 10:07:44;;;;;;;;;;;20.30;99.90;;;;;;1913027;73;20230;-70
2021/09/27 10:10:12;;;;;;;;;;;20.30;99.90;;;;;;1910344;73;20548;-70
2021/09/27 10:12:50;;;;;;;;;;;20.40;99.90;;;;;;1915749;73;20213;-69
2021/09/27 10:15:19;;;;;;;;;;;20.40;99.90;;;;;;1911850;73;20524;-71
2021/09/27 10:17:45;;;;;;;;;;;20.40;99.90;;;;;;1916492;73;20228;-69
2021/09/27 10:20:14;;;;;;;;;;;20.20;99.90;;;;;;1918790;73;20442;-69
2021/09/27 10:22:42;;;;;;;;;;;20.30;99.90;;;;;;1916935;73;20271;-69
2021/09/27 10:25:10;;;;;;;;;;;20.40;99.90;;;;;;1913021;73;20542;-69
2021/09/27 10:27:41;;;;;;;;;;;20.50;99.90;;;;;;1884895;73;20149;-69
2021/09/27 10:30:09;;;;;;;;;;;20.60;99.90;;;;;;1915611;73;20188;-69
2021/09/27 10:32:40;;;;;;;;;;;20.70;99.90;;;;;;1912394;73;20203;-69
2021/09/27 10:35:25;;;;;;;;;;;20.70;99.90;;;;;;1866169;75;20168;-69
2021/09/27 10:37:56;;;;;;;;;;;20.60;99.90;;;;;;1911314;73;20179;-69
2021/09/27 10:40:23;;;;;;;;;;;20.60;99.90;;;;;;1869240;75;20215;-69
2021/09/27 10:42:51;;;;;;;;;;;20.60;99.90;;;;;;1865512;75;20468;-70
2021/09/27 10:45:19;;;;;;;;;;;20.60;99.90;;;;;;1868084;75;20232;-70
2021/09/27 10:47:48;;;;;;;;;;;20.50;99.90;;;;;;1908415;74;20278;-71
2021/09/27 10:50:16;;;;;;;;;;;20.50;99.90;;;;;;1912237;74;20212;-69
2021/09/27 10:52:45;;;;;;;;;;;20.50;99.90;;;;;;1903068;74;20190;-70
2021/09/27 10:55:13;;;;;;;;;;;20.50;99.90;;;;;;1908717;74;20400;-70
2021/09/27 10:57:41;;;;;;;;;;;20.50;99.90;;;;;;1912880;74;20110;-70
2021/09/27 11:00:26;;;;;;;;;;;20.40;99.90;;;;;;1905881;74;20219;-70
2021/09/27 11:02:57;;;;;;;;;;;20.40;99.90;;;;;;1902977;74;20121;-70
2021/09/27 11:05:44;;;;;;;;;;;20.40;99.90;;;;;;1919744;73;20188;-70
2021/09/27 11:08:12;;;;;;;;;;;20.30;99.90;;;;;;1913233;73;20158;-69
2021/09/27 11:10:43;;;;;;;;;;;20.40;99.90;;;;;;1921340;73;20242;-71
2021/09/27 11:13:16;;;;;;;;;;;20.50;99.90;;;;;;1913923;74;20195;-70
2021/09/27 11:15:41;;;;;;;;;;;20.50;99.90;;;;;;1913243;73;20398;-71
2021/09/27 11:18:27;;;;;;;;;;;20.50;99.90;;;;;;1917485;73;20209;-71
2021/09/27 11:20:58;;;;;;;;;;;20.90;99.90;;;;;;1914058;73;20427;-71
2021/09/27 11:23:30;;;;;;;;;;;21.20;99.90;;;;;;1918293;73;20254;-71
2021/09/27 11:26:13;;;;;;;;;;;21.50;99.90;;;;;;1914614;73;20214;-71
2021/09/27 11:28:44;;;;;;;;;;;21.70;99.90;;;;;;1911575;73;20191;-71
2021/09/27 11:31:21;;;;;;;;;;;21.90;99.90;;;;;;1914989;73;20216;-71
2021/09/27 11:33:50;;;;;;;;;;;22.00;99.90;;;;;;1908940;73;20893;-70
2021/09/27 11:36:27;;;;;;;;;;;22.10;99.90;;;;;;1916735;73;20232;-71
2021/09/27 11:39:08;;;;;;;;;;;22.20;99.90;;;;;;1901682;73;20129;-71
2021/09/27 11:41:37;;;;;;;;;;;22.00;99.90;;;;;;1891417;75;20492;-71
2021/09/27 11:44:11;;;;;;;;;;;21.70;99.90;;;;;;1894208;75;20201;-71
2021/09/27 11:46:43;;;;;;;;;;;21.50;99.90;;;;;;1891551;75;20200;-70
2021/09/27 11:49:30;;;;;;;;;;;21.40;99.90;;;;;;1893594;75;20215;-70
2021/09/27 11:52:13;;;;;;;;;;;21.40;99.90;;;;;;1892891;75;20179;-69
2021/09/27 11:54:48;;;;;;;;;;;21.20;99.90;;;;;;1897129;75;20198;-70
2021/09/27 11:57:35;;;;;;;;;;;21.20;99.90;;;;;;1898296;74;20209;-71
2021/09/27 12:00:09;;;;;;;;;;;21.10;99.90;;;;;;1897721;74;20169;-70
2021/09/27 12:02:44;;;;;;;;;;;21.00;99.90;;;;;;1897860;74;20177;-70
2021/09/27 12:05:12;;;;;;;;;;;21.00;99.90;;;;;;1900040;73;20265;-70
2021/09/27 12:07:43;;;;;;;;;;;20.90;99.90;;;;;;1899165;74;20112;-70
2021/09/27 12:10:14;;;;;;;;;;;20.90;99.90;;;;;;1888127;74;20263;-70
2021/09/27 12:12:43;;;;;;;;;;;20.90;99.90;;;;;;1902638;73;20199;-70
2021/09/27 12:15:11;;;;;;;;;;;20.90;99.90;;;;;;1903535;74;20506;-70
2021/09/27 12:17:39;;;;;;;;;;;20.90;99.90;;;;;;1906442;74;20215;-70
2021/09/27 12:20:08;;;;;;;;;;;20.90;99.90;;;;;;1897551;74;20180;-70
2021/09/27 12:22:36;;;;;;;;;;;20.90;99.90;;;;;;1890672;74;20179;-70
2021/09/27 12:25:04;;;;;;;;;;;21.00;99.90;;;;;;1890084;74;20398;-70
2021/09/27 12:27:31;;;;;;;;;;;21.20;99.90;;;;;;1890454;74;20202;-70
2021/09/27 12:30:02;;;;;;;;;;;21.40;99.90;;;;;;1893771;74;20218;-70
2021/09/27 12:32:36;;;;;;;;;;;21.70;99.90;;;;;;1895671;74;20204;-70
2021/09/27 12:35:04;;;;;;;;;;;22.10;99.90;;;;;;1900964;74;20244;-69
2021/09/27 12:37:35;;;;;;;;;;;22.20;99.90;;;;;;1902573;74;20167;-70
2021/09/27 12:40:02;;;;;;;;;;;22.00;99.90;;;;;;1906685;73;20124;-70
2021/09/27 12:42:31;;;;;;;;;;;22.00;99.90;;;;;;1901560;73;20152;-70
2021/09/27 12:45:02;;;;;;;;;;;22.10;99.90;;;;;;1906130;73;20231;-69
2021/09/27 12:47:29;;;;;;;;;;;22.10;99.90;;;;;;1904566;73;20530;-69
2021/09/27 12:49:57;;;;;;;;;;;22.00;99.90;;;;;;1910632;73;20530;-69
2021/09/27 12:52:35;;;;;;;;;;;21.80;99.90;;;;;;1904393;73;20161;-69
2021/09/27 12:55:03;;;;;;;;;;;21.70;99.90;;;;;;1910987;73;20116;-69
2021/09/27 12:57:33;;;;;;;;;;;21.60;99.90;;;;;;1905433;73;20204;-69
2021/09/27 13:00:00;;;;;;;;;;;21.50;99.90;;;;;;1904699;73;20241;-70
2021/09/27 13:02:31;;;;;;;;;;;21.40;99.90;;;;;;1909407;73;20214;-70
2021/09/27 13:05:08;;;;;;;;;;;21.40;99.90;;;;;;1903283;73;20118;-70
2021/09/27 13:07:40;;;;;;;;;;;21.30;99.90;;;;;;1904207;73;20169;-69
2021/09/27 13:10:09;;;;;;;;;;;21.30;99.90;;;;;;1907696;73;20566;-69
2021/09/27 13:12:37;;;;;;;;;;;21.40;99.90;;;;;;1900975;74;20144;-70
2021/09/27 13:15:06;;;;;;;;;;;21.40;99.90;;;;;;1903213;74;20118;-70
2021/09/27 13:17:33;;;;;;;;;;;21.40;99.90;;;;;;1908110;73;20203;-70
2021/09/27 13:20:03;;;;;;;;;;;21.50;99.90;;;;;;1898622;73;20155;-69
2021/09/27 13:22:41;;;;;;;;;;;21.60;99.90;;;;;;1902884;73;20260;-70
2021/09/27 13:25:12;;;;;;;;;;;21.70;99.90;;;;;;1898083;73;20241;-70
2021/09/27 13:27:43;;;;;;;;;;;21.70;99.90;;;;;;1876220;75;20477;-70
2021/09/27 13:30:21;;;;;;;;;;;21.70;99.90;;;;;;1875762;75;20145;-69
2021/09/27 13:32:58;;;;;;;;;;;21.70;99.90;;;;;;1878844;75;20504;-69
2021/09/27 13:35:26;;;;;;;;;;;21.80;99.90;;;;;;1878569;75;20131;-69
2021/09/27 13:37:58;;;;;;;;;;;21.90;99.90;;;;;;1869246;75;20231;-69
2021/09/27 13:40:26;;;;;;;;;;;22.20;99.90;;;;;;1873129;75;20200;-69
2021/09/27 13:43:06;;;;;;;;;;;22.30;99.90;;;;;;1913907;73;20218;-69
2021/09/27 13:45:36;;;;;;;;;;;22.40;99.90;;;;;;1914044;72;20169;-69
2021/09/27 13:48:04;;;;;;;;;;;22.60;99.90;;;;;;1911607;73;20224;-69
2021/09/27 13:50:31;;;;;;;;;;;22.70;99.90;;;;;;1910146;73;20182;-68
2021/09/27 13:53:06;;;;;;;;;;;22.60;99.90;;;;;;1867881;75;20193;-68
2021/09/27 13:55:32;;;;;;;;;;;22.60;99.90;;;;;;1914001;73;21158;-68
2021/09/27 13:57:59;;;;;;;;;;;22.50;99.90;;;;;;1867477;75;20137;-69
2021/09/27 14:00:26;;;;;;;;;;;22.40;99.90;;;;;;1913156;73;20181;-68
2021/09/27 14:02:53;;;;;;;;;;;22.30;99.90;;;;;;1916432;73;20197;-69
2021/09/27 14:05:20;;;;;;;;;;;22.10;99.90;;;;;;1914377;73;20220;-69
2021/09/27 14:07:46;;;;;;;;;;;22.00;99.90;;;;;;1868924;75;20234;-69
2021/09/27 14:10:14;;;;;;;;;;;22.00;99.90;;;;;;1913927;73;20372;-69
2021/09/27 14:12:41;;;;;;;;;;;21.90;99.90;;;;;;1915179;73;20247;-69
2021/09/27 14:15:09;;;;;;;;;;;21.80;99.90;;;;;;1866618;75;20217;-69
2021/09/27 14:17:37;;;;;;;;;;;21.70;99.90;;;;;;1869388;75;20223;-69
2021/09/27 14:20:06;;;;;;;;;;;21.70;99.90;;;;;;1911929;73;20212;-68
2021/09/27 14:22:34;;;;;;;;;;;21.60;99.90;;;;;;1911933;73;20396;-70
2021/09/27 14:25:01;;;;;;;;;;;21.60;99.90;;;;;;1912606;73;20176;-68
2021/09/27 14:27:28;;;;;;;;;;;21.60;99.90;;;;;;1911801;73;20197;-68
2021/09/27 14:29:55;;;;;;;;;;;21.50;99.90;;;;;;1913562;73;20230;-69
2021/09/27 14:32:27;;;;;;;;;;;21.50;99.90;;;;;;1914756;73;20205;-70
2021/09/27 14:34:50;;;;;;;;;;;21.50;99.90;;;;;;1865254;75;20224;-69
2021/09/27 14:37:17;;;;;;;;;;;21.50;99.90;;;;;;1907477;74;21179;-70
2021/09/27 14:39:44;;;;;;;;;;;21.40;99.90;;;;;;1869774;75;20313;-70